Time;durP1;ratioP1;P1;durP2;ratioP2;P2;SDS_P1;SDS_P2;PMS_P1;PMS_P2;Temp;Humidity;BMP_temperature;BMP_pressure;BME280_temperature;BME280_humidity;BME280_pressure;Samples;Min_cycle;Max_cycle;Signal;HPM_P1;HPM_P2
2023/10/03 00:01:04;;;;;;;50.08;25.15;;;;;;;18.05;100.00;100956.97;5089267;28;20352;-88
2023/10/03 00:03:30;;;;;;;43.03;24.80;;;;;;;18.04;100.00;100947.31;5090095;28;20043;-82
2023/10/03 00:05:55;;;;;;;45.83;25.63;;;;;;;18.04;100.00;100941.16;5058915;28;20028;-82
2023/10/03 00:08:22;;;;;;;41.47;24.27;;;;;;;18.05;100.00;100938.34;5063666;28;20029;-82
2023/10/03 00:10:49;;;;;;;44.33;25.38;;;;;;;18.05;100.00;100942.84;5075327;28;20016;-88
2023/10/03 00:13:17;;;;;;;43.20;25.05;;;;;;;18.03;100.00;100929.69;5096116;28;20020;-82
2023/10/03 00:15:44;;;;;;;41.95;24.55;;;;;;;18.05;100.00;100921.53;5089288;28;20107;-82
2023/10/03 00:18:13;;;;;;;42.38;25.00;;;;;;;18.04;100.00;100910.06;5094339;28;20024;-82
2023/10/03 00:20:39;;;;;;;49.08;25.70;;;;;;;18.04;100.00;100919.88;5100792;28;20046;-79
2023/10/03 00:23:05;;;;;;;42.28;24.85;;;;;;;18.05;100.00;100921.53;5081839;28;20028;-80
2023/10/03 00:25:31;;;;;;;44.80;24.50;;;;;;;18.04;100.00;100919.88;5079611;28;20050;-83
2023/10/03 00:28:01;;;;;;;44.53;25.50;;;;;;;18.02;100.00;100912.03;5076048;28;20060;-82
2023/10/03 00:30:28;;;;;;;40.65;24.55;;;;;;;17.99;100.00;100912.31;5084795;28;20042;-82
2023/10/03 00:33:02;;;;;;;40.97;24.10;;;;;;;17.99;100.00;100906.16;5081192;28;20024;-80
2023/10/03 00:35:28;;;;;;;45.88;24.35;;;;;;;17.96;100.00;100896.69;5084346;28;20035;-89
2023/10/03 00:37:53;;;;;;;42.83;24.48;;;;;;;17.92;100.00;100895.34;5105813;28;20032;-80
2023/10/03 00:42:57;;;;;;;46.05;24.88;;;;;;;17.91;100.00;100891.00;5085441;28;20071;-80
2023/10/03 00:45:22;;;;;;;41.28;23.85;;;;;;;17.89;100.00;100879.69;5086108;28;20054;-81
2023/10/03 00:47:48;;;;;;;45.25;25.40;;;;;;;17.87;100.00;100873.69;5087412;28;20035;-81
2023/10/03 00:50:20;;;;;;;42.25;23.80;;;;;;;17.86;100.00;100864.03;5097860;28;20023;-84
2023/10/03 00:52:57;;;;;;;44.33;24.35;;;;;;;17.87;100.00;100855.03;5106493;28;20404;-82
2023/10/03 00:55:33;;;;;;;40.90;24.52;;;;;;;17.84;100.00;100855.38;5098747;28;20032;-80
2023/10/03 01:00:45;;;;;;;41.92;24.23;;;;;;;17.82;100.00;100842.22;5093650;28;20028;-82
2023/10/03 01:03:31;;;;;;;46.30;24.70;;;;;;;17.87;100.00;100843.56;5079471;28;20031;-83
2023/10/03 01:06:04;;;;;;;43.70;24.50;;;;;;;17.83;100.00;100827.91;5086094;28;20065;-83
2023/10/03 01:08:31;;;;;;;41.83;23.20;;;;;;;17.84;100.00;100823.44;5090776;28;20036;-82
2023/10/03 01:11:00;;;;;;;47.17;24.25;;;;;;;17.85;100.00;100814.44;5070571;28;20025;-82
2023/10/03 01:13:27;;;;;;;41.22;23.75;;;;;;;17.83;100.00;100811.94;5079341;28;20073;-83
2023/10/03 01:15:54;;;;;;;42.80;24.42;;;;;;;17.82;100.00;100809.44;5079856;28;20033;-82
2023/10/03 01:18:22;;;;;;;39.17;23.77;;;;;;;17.84;100.00;100808.28;5079949;28;20109;-82
2023/10/03 01:20:51;;;;;;;41.75;23.08;;;;;;;17.85;100.00;100809.97;5086843;28;20070;-82
2023/10/03 01:23:19;;;;;;;36.40;22.70;;;;;;;17.85;100.00;100809.13;5054676;28;20025;-88
2023/10/03 01:25:45;;;;;;;41.10;23.10;;;;;;;17.88;100.00;100808.81;5067716;28;20392;-82
2023/10/03 01:28:12;;;;;;;43.90;24.33;;;;;;;17.89;100.00;100802.47;5073527;28;20026;-88
2023/10/03 01:30:40;;;;;;;38.65;22.73;;;;;;;17.89;100.00;100799.81;5069355;28;20372;-82
2023/10/03 01:33:06;;;;;;;38.33;22.60;;;;;;;17.93;100.00;100795.84;5069437;28;20477;-82
2023/10/03 01:35:33;;;;;;;39.65;22.45;;;;;;;17.95;100.00;100795.66;5069528;28;20115;-83
2023/10/03 01:37:58;;;;;;;38.00;21.40;;;;;;;17.98;100.00;100795.34;5070955;28;20031;-82
2023/10/03 01:40:24;;;;;;;36.88;22.27;;;;;;;18.00;100.00;100788.03;5047718;28;20021;-83
2023/10/03 01:42:49;;;;;;;39.72;21.52;;;;;;;18.01;100.00;100776.38;5053621;28;20043;-89
2023/10/03 01:45:23;;;;;;;36.55;20.90;;;;;;;18.04;100.00;100787.56;5051557;28;20052;-89
2023/10/03 01:47:51;;;;;;;34.60;20.83;;;;;;;18.08;100.00;100790.72;5082649;28;20387;-88
2023/10/03 01:50:19;;;;;;;38.22;21.48;;;;;;;18.12;99.66;100790.25;5073015;28;20110;-89
2023/10/03 01:52:46;;;;;;;38.25;21.60;;;;;;;18.18;99.33;100788.75;5066214;28;20511;-88
2023/10/03 01:55:14;;;;;;;34.70;20.17;;;;;;;18.24;98.68;100789.91;5080929;28;20030;-88
2023/10/03 01:57:40;;;;;;;35.47;21.08;;;;;;;18.27;98.40;100792.25;5079420;28;20054;-88
2023/10/03 02:00:20;;;;;;;38.88;20.45;;;;;;;18.30;98.57;100791.91;5054631;28;20143;-83
2023/10/03 02:02:46;;;;;;;37.80;21.02;;;;;;;18.33;98.06;100781.75;5076498;28;20034;-87
2023/10/03 02:05:12;;;;;;;34.50;20.33;;;;;;;18.36;97.94;100780.59;5071781;28;20024;-89
2023/10/03 02:07:39;;;;;;;37.17;21.08;;;;;;;18.39;97.57;100774.94;5071196;28;20593;-89
2023/10/03 02:10:05;;;;;;;35.15;20.15;;;;;;;18.39;97.65;100769.59;5084479;28;20025;-83
2023/10/03 02:12:30;;;;;;;36.67;20.58;;;;;;;18.46;96.95;100775.97;5088834;28;20035;-83
2023/10/03 02:14:55;;;;;;;36.55;20.85;;;;;;;18.47;96.48;100764.31;5085780;28;20028;-83
2023/10/03 02:17:21;;;;;;;34.83;20.33;;;;;;;18.48;96.67;100764.13;5060835;28;20094;-83
2023/10/03 02:19:48;;;;;;;36.72;19.92;;;;;;;18.55;95.98;100760.81;5057011;28;20082;-83
2023/10/03 02:22:14;;;;;;;36.58;20.77;;;;;;;18.56;95.96;100747.31;5087651;28;20036;-82
2023/10/03 02:24:43;;;;;;;32.83;19.95;;;;;;;18.55;95.95;100727.00;5076691;28;20383;-82
2023/10/03 02:27:10;;;;;;;37.20;20.42;;;;;;;18.53;96.34;100734.31;5094965;28;20472;-89
2023/10/03 02:29:38;;;;;;;36.05;20.10;;;;;;;18.59;95.62;100760.28;5091029;28;20028;-82
2023/10/03 02:32:05;;;;;;;35.42;19.67;;;;;;;18.56;95.63;100763.28;5081316;28;20048;-82
2023/10/03 02:34:33;;;;;;;36.33;20.58;;;;;;;18.61;95.56;100760.13;5082192;28;20043;-82
2023/10/03 02:36:59;;;;;;;33.25;19.58;;;;;;;18.56;95.85;100760.63;5072342;28;20035;-82
2023/10/03 02:39:29;;;;;;;34.58;20.17;;;;;;;18.57;95.77;100762.28;5073644;28;20103;-88
2023/10/03 02:41:54;;;;;;;33.35;19.38;;;;;;;18.60;95.29;100756.63;5071865;28;20025;-83
2023/10/03 02:44:19;;;;;;;35.60;19.30;;;;;;;18.62;94.78;100765.31;5067848;28;20028;-83
2023/10/03 02:46:45;;;;;;;35.58;19.90;;;;;;;18.64;94.93;100755.31;5065019;28;20449;-88
2023/10/03 02:49:11;;;;;;;35.75;19.17;;;;;;;18.67;94.80;100765.66;5055133;28;20051;-84
2023/10/03 02:51:37;;;;;;;32.22;18.40;;;;;;;18.71;94.22;100758.97;5072317;28;20074;-83
2023/10/03 02:54:02;;;;;;;34.03;19.35;;;;;;;18.72;94.40;100763.31;5074067;28;20480;-89
2023/10/03 02:56:28;;;;;;;34.22;19.10;;;;;;;18.70;94.47;100767.97;5071618;28;20441;-88
2023/10/03 02:58:53;;;;;;;34.40;19.27;;;;;;;18.73;94.17;100777.47;5078230;28;20028;-88
2023/10/03 03:01:21;;;;;;;29.52;17.50;;;;;;;18.72;94.52;100779.28;5066304;28;20056;-82
2023/10/03 03:03:48;;;;;;;29.65;17.63;;;;;;;18.72;94.91;100775.81;5064138;28;20028;-82
2023/10/03 03:06:14;;;;;;;27.02;16.33;;;;;;;18.78;95.09;100769.78;5079716;28;20022;-83
2023/10/03 03:08:41;;;;;;;30.33;16.35;;;;;;;18.84;95.68;100762.97;5092471;28;20047;-83
2023/10/03 03:11:08;;;;;;;29.45;15.25;;;;;;;18.91;96.29;100762.13;5073298;28;20103;-82
2023/10/03 03:13:36;;;;;;;25.15;14.15;;;;;;;18.98;96.29;100764.94;5083695;28;20028;-83
2023/10/03 03:16:03;;;;;;;23.50;14.02;;;;;;;19.02;96.30;100766.25;5071088;28;20554;-82
2023/10/03 03:18:36;;;;;;;22.58;13.70;;;;;;;19.06;95.81;100763.09;5071801;28;20740;-87
2023/10/03 03:21:04;;;;;;;26.20;14.68;;;;;;;19.06;95.61;100762.25;5067152;28;20044;-82
2023/10/03 03:23:35;;;;;;;26.45;14.52;;;;;;;19.05;94.94;100758.75;5063391;28;20032;-83
2023/10/03 03:26:21;;;;;;;26.55;14.98;;;;;;;19.04;94.83;100764.25;5074668;28;20027;-82
2023/10/03 03:28:49;;;;;;;23.85;14.57;;;;;;;19.03;93.93;100757.25;5068114;28;20051;-82
2023/10/03 03:31:32;;;;;;;28.17;16.05;;;;;;;18.98;94.15;100752.44;5064944;28;20103;-81
2023/10/03 03:34:00;;;;;;;27.45;15.75;;;;;;;18.97;93.92;100755.28;5072180;28;20020;-89
2023/10/03 03:36:30;;;;;;;27.73;15.43;;;;;;;18.93;94.83;100752.13;5072812;28;20029;-89
2023/10/03 03:38:58;;;;;;;24.98;14.70;;;;;;;18.92;94.82;100760.28;5076002;28;20024;-82
2023/10/03 03:41:23;;;;;;;29.33;15.00;;;;;;;18.94;95.12;100758.28;5068447;28;20024;-82
2023/10/03 03:43:48;;;;;;;28.08;14.40;;;;;;;18.93;95.21;100759.28;5072673;28;20035;-88
2023/10/03 03:46:20;;;;;;;24.30;14.38;;;;;;;18.89;96.06;100764.13;5050571;28;20041;-82
2023/10/03 03:48:46;;;;;;;23.40;14.63;;;;;;;18.91;96.17;100763.97;5078335;28;20064;-88
2023/10/03 03:51:12;;;;;;;24.55;13.18;;;;;;;18.91;96.62;100764.78;5042414;28;20328;-87
2023/10/03 03:53:43;;;;;;;21.27;13.20;;;;;;;18.90;97.07;100773.78;5070424;28;20446;-82
2023/10/03 03:56:08;;;;;;;22.45;12.80;;;;;;;18.91;97.32;100769.28;5050635;28;20453;-83
2023/10/03 03:58:39;;;;;;;20.15;12.45;;;;;;;18.91;97.73;100772.78;5048981;28;20112;-82
2023/10/03 04:01:14;;;;;;;20.63;11.90;;;;;;;18.94;97.93;100784.94;5051619;28;20101;-88
2023/10/03 04:03:39;;;;;;;20.73;11.88;;;;;;;18.95;98.34;100784.78;5051900;28;20090;-83
2023/10/03 04:06:05;;;;;;;18.92;11.15;;;;;;;18.99;98.44;100779.94;5050815;28;20025;-81
2023/10/03 04:08:31;;;;;;;17.88;10.65;;;;;;;18.99;97.87;100783.44;5072092;28;20066;-82
2023/10/03 04:10:57;;;;;;;17.05;10.38;;;;;;;19.03;98.18;100786.59;5066274;28;20036;-83
2023/10/03 04:13:24;;;;;;;19.75;9.68;;;;;;;19.06;98.25;100796.91;5069203;28;20111;-82
2023/10/03 04:15:50;;;;;;;21.05;9.98;;;;;;;19.07;97.48;100793.25;5040980;28;20036;-88
2023/10/03 04:18:15;;;;;;;15.52;9.90;;;;;;;19.05;97.55;100787.25;5054207;28;20059;-82
2023/10/03 04:20:46;;;;;;;14.63;9.18;;;;;;;19.12;96.80;100801.56;5059782;28;20056;-82
2023/10/03 04:23:18;;;;;;;16.05;8.52;;;;;;;19.09;96.99;100809.91;5051202;28;20447;-84
2023/10/03 04:25:44;;;;;;;14.27;8.10;;;;;;;19.09;96.60;100809.91;5049873;28;20037;-81
2023/10/03 04:28:11;;;;;;;16.95;8.35;;;;;;;19.07;95.54;100811.91;5049067;28;20441;-86
2023/10/03 04:30:39;;;;;;;19.30;8.20;;;;;;;19.05;95.61;100814.75;5051052;28;20092;-84
2023/10/03 04:33:05;;;;;;;14.27;8.13;;;;;;;19.06;95.42;100812.91;5040487;28;20029;-82
2023/10/03 04:35:30;;;;;;;13.48;6.85;;;;;;;19.04;95.12;100815.75;5047129;28;20035;-82
2023/10/03 04:37:57;;;;;;;16.60;6.90;;;;;;;19.02;94.08;100836.44;5049002;28;20116;-81
2023/10/03 04:40:35;;;;;;;12.05;7.20;;;;;;;19.02;94.26;100836.44;5071348;28;20020;-83
2023/10/03 04:43:14;;;;;;;14.13;6.45;;;;;;;19.01;93.77;100831.28;5069046;28;20028;-82
2023/10/03 04:45:40;;;;;;;13.43;6.32;;;;;;;18.99;93.86;100825.28;5056331;28;20052;-82
2023/10/03 04:48:07;;;;;;;10.98;6.03;;;;;;;18.94;94.01;100832.94;5066184;28;20060;-87
2023/10/03 04:50:35;;;;;;;12.70;6.25;;;;;;;18.90;94.42;100836.97;5070141;28;20048;-89
2023/10/03 04:53:02;;;;;;;16.35;6.70;;;;;;;18.87;94.42;100842.63;5070018;28;20054;-80
2023/10/03 04:55:27;;;;;;;16.60;6.40;;;;;;;18.84;94.10;100843.78;5071355;28;20899;-87
2023/10/03 04:57:53;;;;;;;19.33;6.30;;;;;;;18.82;93.70;100852.97;5070248;28;20035;-81
2023/10/03 05:00:20;;;;;;;15.80;6.63;;;;;;;18.78;94.03;100855.09;5071013;28;20472;-82
2023/10/03 05:02:51;;;;;;;13.30;6.28;;;;;;;18.73;94.32;100847.59;5065955;28;20040;-83
2023/10/03 05:05:21;;;;;;;12.80;6.35;;;;;;;18.71;93.79;100843.44;5063044;28;20047;-82
2023/10/03 05:07:48;;;;;;;13.75;6.57;;;;;;;18.67;93.94;100853.59;5070693;28;20036;-83
2023/10/03 05:10:14;;;;;;;16.30;6.57;;;;;;;18.63;94.10;100868.25;5051427;28;20033;-82
2023/10/03 05:12:40;;;;;;;13.05;6.47;;;;;;;18.61;94.34;100880.88;5077038;28;20079;-82
2023/10/03 05:15:10;;;;;;;12.43;6.60;;;;;;;18.57;94.14;100874.22;5050910;28;20440;-82
2023/10/03 05:17:35;;;;;;;12.35;6.30;;;;;;;18.56;94.75;100887.72;5049395;28;20029;-83
2023/10/03 05:20:02;;;;;;;14.50;6.28;;;;;;;18.53;94.51;100904.88;5048188;28;20582;-82
2023/10/03 05:22:32;;;;;;;12.27;6.50;;;;;;;18.50;95.03;100899.88;5055979;28;20024;-82
2023/10/03 05:25:00;;;;;;;12.07;6.45;;;;;;;18.49;95.14;100892.88;5069773;28;20103;-81
2023/10/03 05:27:29;;;;;;;12.57;6.07;;;;;;;18.44;95.73;100874.72;5067774;28;20042;-87
2023/10/03 05:30:04;;;;;;;12.63;6.13;;;;;;;18.39;96.12;100866.34;5089785;28;20488;-88
2023/10/03 05:32:30;;;;;;;15.25;6.43;;;;;;;18.38;95.75;100866.50;5089714;28;20043;-82
2023/10/03 05:34:55;;;;;;;12.73;6.50;;;;;;;18.34;96.27;100862.50;5089966;28;20465;-80
2023/10/03 05:37:21;;;;;;;16.45;6.85;;;;;;;18.33;96.74;100855.50;5082362;28;20031;-81
2023/10/03 05:39:47;;;;;;;12.73;6.80;;;;;;;18.29;96.74;100872.81;5059027;28;20082;-87
2023/10/03 05:42:13;;;;;;;13.27;6.10;;;;;;;18.27;96.98;100882.81;5052717;28;20461;-83
2023/10/03 05:44:38;;;;;;;11.43;6.38;;;;;;;18.26;97.22;100889.13;5059547;28;20031;-82
2023/10/03 05:47:05;;;;;;;11.07;6.18;;;;;;;18.23;97.38;100876.97;5063969;28;20059;-81
2023/10/03 05:49:30;;;;;;;14.85;5.97;;;;;;;18.23;98.07;100884.97;5067507;28;20020;-81
2023/10/03 05:51:56;;;;;;;13.25;6.18;;;;;;;18.24;98.08;100880.47;5068976;28;20074;-82
2023/10/03 05:54:23;;;;;;;9.88;6.30;;;;;;;18.22;97.97;100885.13;5072502;28;20035;-81
2023/10/03 05:56:49;;;;;;;15.48;6.45;;;;;;;18.21;97.90;100878.97;5068737;28;20086;-84
2023/10/03 05:59:15;;;;;;;11.32;5.90;;;;;;;18.20;98.30;100884.47;5092335;28;20023;-82
2023/10/03 06:01:40;;;;;;;13.57;6.18;;;;;;;18.19;97.86;100885.47;5061292;28;20115;-83
2023/10/03 06:04:08;;;;;;;9.13;6.07;;;;;;;18.16;98.24;100886.63;5064372;28;20021;-83
2023/10/03 06:06:33;;;;;;;12.38;5.75;;;;;;;18.13;98.52;100895.75;5074256;28;20031;-81
2023/10/03 06:08:58;;;;;;;10.15;5.95;;;;;;;18.13;98.80;100893.09;5067661;28;20039;-82
2023/10/03 06:11:24;;;;;;;10.82;5.95;;;;;;;18.12;99.06;100886.09;5068671;28;20032;-82
2023/10/03 06:13:49;;;;;;;9.70;5.90;;;;;;;18.09;99.40;100886.44;5092482;28;20052;-83
2023/10/03 06:16:15;;;;;;;11.52;6.05;;;;;;;18.10;99.28;100885.44;5084534;28;20033;-84
2023/10/03 06:18:44;;;;;;;12.40;6.40;;;;;;;18.10;99.28;100895.25;5073757;28;20036;-90
2023/10/03 06:21:10;;;;;;;9.85;6.18;;;;;;;18.12;99.77;100906.56;5066014;28;20029;-82
2023/10/03 06:23:39;;;;;;;13.88;6.63;;;;;;;18.08;99.89;100906.06;5065921;28;20063;-89
2023/10/03 06:26:05;;;;;;;12.98;6.25;;;;;;;18.07;100.00;100915.06;5072663;28;20477;-81
2023/10/03 06:28:31;;;;;;;9.52;6.55;;;;;;;18.03;100.00;100924.34;5074801;28;20020;-84
2023/10/03 06:30:57;;;;;;;14.07;6.65;;;;;;;18.01;100.00;100918.34;5092932;28;20030;-89
2023/10/03 06:33:23;;;;;;;11.60;6.93;;;;;;;18.01;100.00;100915.69;5094605;28;20059;-82
2023/10/03 06:35:50;;;;;;;14.00;6.85;;;;;;;18.01;100.00;100921.03;5093262;28;20074;-88
2023/10/03 06:38:16;;;;;;;17.65;7.30;;;;;;;18.00;100.00;100927.31;5079805;28;20046;-82
2023/10/03 06:40:43;;;;;;;11.52;7.10;;;;;;;18.00;100.00;100923.81;5072629;28;20021;-84
2023/10/03 06:43:09;;;;;;;12.55;6.63;;;;;;;18.00;100.00;100926.47;5072349;28;20484;-83
2023/10/03 06:45:35;;;;;;;10.93;6.60;;;;;;;17.99;100.00;100933.63;5067075;28;20151;-88
2023/10/03 06:48:03;;;;;;;17.25;7.72;;;;;;;17.99;100.00;100932.78;5069111;28;20028;-82
2023/10/03 06:50:30;;;;;;;14.65;7.22;;;;;;;17.98;100.00;100942.59;5071523;28;20028;-82
2023/10/03 06:52:55;;;;;;;12.93;7.32;;;;;;;17.98;100.00;100947.94;5074186;28;20025;-88
2023/10/03 06:55:22;;;;;;;12.65;6.53;;;;;;;17.99;100.00;100960.25;5084119;28;20467;-83
2023/10/03 06:57:47;;;;;;;14.07;6.90;;;;;;;18.02;100.00;100965.28;5091598;28;20028;-82
2023/10/03 07:00:15;;;;;;;13.80;6.22;;;;;;;18.01;100.00;100958.31;5081103;28;20035;-89
2023/10/03 07:02:41;;;;;;;12.75;6.95;;;;;;;18.03;100.00;100956.31;5075953;28;20494;-82
2023/10/03 07:05:08;;;;;;;13.93;7.15;;;;;;;18.03;100.00;100958.97;5072559;28;20099;-88
2023/10/03 07:07:36;;;;;;;15.60;6.72;;;;;;;18.03;100.00;100963.47;5054105;28;20040;-90
2023/10/03 07:10:03;;;;;;;12.80;7.03;;;;;;;18.00;100.00;100956.59;5054142;28;20024;-88
2023/10/03 07:12:32;;;;;;;12.52;7.18;;;;;;;17.99;100.00;100970.91;5088271;28;20059;-83
2023/10/03 07:14:58;;;;;;;14.82;7.28;;;;;;;17.97;100.00;100964.06;5060623;28;20035;-83
2023/10/03 07:17:23;;;;;;;12.07;6.60;;;;;;;17.95;100.00;100971.38;5071507;28;20028;-84
2023/10/03 07:19:49;;;;;;;15.40;7.00;;;;;;;17.93;100.00;100971.53;5089307;28;20039;-83
2023/10/03 07:22:19;;;;;;;15.02;8.15;;;;;;;17.85;100.00;100979.50;5091979;28;20150;-89
2023/10/03 07:24:44;;;;;;;14.98;8.63;;;;;;;17.83;100.00;100981.47;5082390;28;20027;-83
2023/10/03 07:27:13;;;;;;;15.38;8.77;;;;;;;17.73;100.00;100980.75;5077074;28;20028;-82
2023/10/03 07:29:42;;;;;;;14.10;8.65;;;;;;;17.70;100.00;100970.41;5076737;28;20028;-87
2023/10/03 07:32:12;;;;;;;13.18;8.10;;;;;;;17.67;100.00;100981.38;5071570;28;20494;-82
2023/10/03 07:34:42;;;;;;;14.20;8.70;;;;;;;17.68;100.00;100977.72;5073776;28;20024;-82
2023/10/03 07:37:07;;;;;;;15.50;8.55;;;;;;;17.70;100.00;100986.38;5043060;28;20511;-82
2023/10/03 07:39:33;;;;;;;13.98;8.68;;;;;;;17.71;100.00;100983.56;5068056;28;20044;-85
2023/10/03 07:41:58;;;;;;;13.23;8.10;;;;;;;17.74;100.00;100985.09;5065117;28;20627;-87
2023/10/03 07:44:25;;;;;;;12.20;8.23;;;;;;;17.75;100.00;100984.09;5048927;28;20012;-82
2023/10/03 07:46:51;;;;;;;14.43;8.32;;;;;;;17.71;100.00;101012.00;5072033;28;20021;-82
2023/10/03 07:49:17;;;;;;;13.55;8.50;;;;;;;17.73;100.00;101010.88;5071533;28;20027;-84
2023/10/03 07:51:43;;;;;;;13.65;7.97;;;;;;;17.72;100.00;101016.34;5071219;28;20143;-82
2023/10/03 07:54:08;;;;;;;11.85;7.70;;;;;;;17.72;100.00;101027.00;5073677;28;20516;-88
2023/10/03 07:56:34;;;;;;;11.02;7.57;;;;;;;17.73;100.00;101020.66;5092327;28;20596;-87
2023/10/03 07:59:04;;;;;;;13.27;7.88;;;;;;;17.72;100.00;101011.03;5081063;28;20024;-84
2023/10/03 08:01:30;;;;;;;13.43;7.35;;;;;;;17.74;100.00;101009.03;5063021;28;20034;-82
2023/10/03 08:03:58;;;;;;;12.23;7.80;;;;;;;17.75;100.00;101029.34;5078396;28;20081;-82
2023/10/03 08:06:33;;;;;;;11.48;7.55;;;;;;;17.74;100.00;101036.50;5088433;28;20038;-83
2023/10/03 08:08:59;;;;;;;14.57;7.28;;;;;;;17.72;100.00;101049.13;5081615;28;20025;-88
2023/10/03 08:11:31;;;;;;;10.57;7.47;;;;;;;17.68;100.00;101079.69;5071073;28;20116;-83
2023/10/03 08:13:58;;;;;;;13.02;8.00;;;;;;;17.66;100.00;101070.16;5070274;28;20052;-82
2023/10/03 08:16:28;;;;;;;14.05;7.50;;;;;;;17.59;100.00;101061.09;5071573;28;20430;-82
2023/10/03 08:19:02;;;;;;;13.35;6.90;;;;;;;17.53;100.00;101076.69;5069483;28;20060;-80
2023/10/03 08:21:29;;;;;;;11.10;6.20;;;;;;;17.47;100.00;101098.59;5064655;28;20029;-81
2023/10/03 08:23:58;;;;;;;9.52;5.38;;;;;;;17.41;100.00;101101.84;5071421;28;20082;-81
2023/10/03 08:26:30;;;;;;;8.32;4.90;;;;;;;17.41;100.00;101091.22;5063986;28;20082;-81
2023/10/03 08:28:59;;;;;;;9.52;4.50;;;;;;;17.41;100.00;101088.56;5074898;28;20042;-81
2023/10/03 08:31:29;;;;;;;7.90;4.10;;;;;;;17.41;100.00;101103.69;5081385;28;20120;-80
2023/10/03 08:33:57;;;;;;;8.48;3.97;;;;;;;17.41;100.00;101109.84;5054665;28;20593;-81
2023/10/03 08:36:27;;;;;;;9.25;3.67;;;;;;;17.42;100.00;101103.53;5062765;28;20166;-81
2023/10/03 08:39:04;;;;;;;7.30;3.58;;;;;;;17.50;100.00;101106.25;5072357;28;20027;-80
2023/10/03 08:41:35;;;;;;;8.18;3.70;;;;;;;17.51;100.00;101123.91;5068074;28;20110;-80
2023/10/03 08:44:05;;;;;;;6.13;2.88;;;;;;;17.55;100.00;101121.75;5085324;28;20380;-81
2023/10/03 08:46:36;;;;;;;9.27;2.95;;;;;;;17.61;100.00;101130.97;5075018;28;20052;-81
2023/10/03 08:49:08;;;;;;;9.23;3.03;;;;;;;17.67;100.00;101154.34;5084083;28;20415;-83
2023/10/03 08:51:35;;;;;;;6.90;2.67;;;;;;;17.65;100.00;101151.00;5083397;28;20459;-81
2023/10/03 08:54:10;;;;;;;10.63;3.03;;;;;;;17.65;100.00;101148.31;5085235;28;20031;-81
2023/10/03 08:56:36;;;;;;;5.88;2.45;;;;;;;17.61;100.00;101154.91;5089816;28;20369;-81
2023/10/03 08:59:03;;;;;;;6.10;2.05;;;;;;;17.54;100.00;101174.16;5059554;28;20024;-83
2023/10/03 09:01:33;;;;;;;4.97;1.80;;;;;;;17.44;100.00;101180.53;5088922;28;20027;-81
2023/10/03 09:04:04;;;;;;;5.20;1.40;;;;;;;17.29;100.00;101192.66;5062002;28;20094;-81
2023/10/03 09:06:37;;;;;;;3.35;0.80;;;;;;;17.19;100.00;101190.88;5064200;28;20110;-81
2023/10/03 09:09:09;;;;;;;4.35;1.25;;;;;;;17.11;100.00;101197.91;5088091;28;20028;-82
2023/10/03 09:11:38;;;;;;;1.45;0.70;;;;;;;17.08;100.00;101206.19;5051541;28;20196;-82
2023/10/03 09:14:05;;;;;;;0.95;0.63;;;;;;;17.09;100.00;101205.19;5085044;28;20031;-81
2023/10/03 09:16:39;;;;;;;4.30;1.05;;;;;;;17.18;100.00;101214.94;5062505;28;20757;-90
2023/10/03 09:19:06;;;;;;;2.08;0.98;;;;;;;17.20;100.00;101228.94;5061174;28;20495;-85
2023/10/03 09:21:33;;;;;;;4.15;1.05;;;;;;;17.28;100.00;101239.69;5073049;28;20040;-89
2023/10/03 09:24:12;;;;;;;2.17;0.85;;;;;;;17.29;100.00;101249.34;5082769;28;20111;-84
2023/10/03 09:26:51;;;;;;;4.55;1.20;;;;;;;17.30;100.00;101244.88;5076093;28;20048;-84
2023/10/03 09:29:30;;;;;;;3.85;1.30;;;;;;;17.26;100.00;101254.97;5067056;28;20000;-84
2023/10/03 09:31:57;;;;;;;5.35;1.25;;;;;;;17.20;100.00;101267.00;5072034;28;20507;-85
2023/10/03 09:34:30;;;;;;;5.18;1.40;;;;;;;17.23;100.00;101265.91;5068412;28;20035;-84
2023/10/03 09:37:02;;;;;;;4.97;1.30;;;;;;;17.25;100.00;101263.09;5073590;28;20155;-84
2023/10/03 09:39:29;;;;;;;4.20;1.17;;;;;;;17.19;100.00;101267.16;5078438;28;20508;-84
2023/10/03 09:41:57;;;;;;;6.75;1.50;;;;;;;17.09;100.00;101269.84;5071417;28;20647;-84
2023/10/03 09:44:29;;;;;;;6.07;1.40;;;;;;;17.02;100.00;101251.97;5085095;28;20094;-84
2023/10/03 09:47:08;;;;;;;4.53;1.50;;;;;;;16.95;100.00;101261.50;5063730;28;20028;-91
2023/10/03 09:49:38;;;;;;;5.80;1.48;;;;;;;16.83;100.00;101272.31;5065325;28;20103;-91
2023/10/03 09:52:22;;;;;;;5.95;1.70;;;;;;;16.87;100.00;101283.50;5060287;28;20542;-85
2023/10/03 09:54:59;;;;;;;4.78;1.42;;;;;;;16.80;100.00;101285.03;5073435;28;20129;-90
2023/10/03 09:57:28;;;;;;;4.38;1.30;;;;;;;16.80;100.00;101280.56;5090203;28;20121;-85
2023/10/03 10:00:00;;;;;;;5.35;1.30;;;;;;;16.75;100.00;101288.13;5089405;28;20024;-90
2023/10/03 10:02:36;;;;;;;7.60;1.60;;;;;;;16.77;100.00;101286.16;5090196;28;20035;-85
2023/10/03 10:05:19;;;;;;;4.68;1.20;;;;;;;16.89;100.00;101298.31;5084813;28;20088;-85
2023/10/03 10:08:08;;;;;;;3.92;1.20;;;;;;;17.06;100.00;101306.53;5090920;28;20016;-85
2023/10/03 10:10:35;;;;;;;4.75;1.10;;;;;;;17.10;100.00;101302.59;5073637;28;20024;-85
2023/10/03 10:13:20;;;;;;;4.95;1.63;;;;;;;17.12;100.00;101301.47;5079001;28;20028;-84
2023/10/03 10:16:01;;;;;;;4.80;1.38;;;;;;;17.10;100.00;101313.22;5063254;28;20143;-83
2023/10/03 10:18:45;;;;;;;4.15;1.40;;;;;;;17.03;100.00;101333.41;5076870;28;20032;-84
2023/10/03 10:21:24;;;;;;;4.53;1.40;;;;;;;16.86;100.00;101343.81;5063584;28;20029;-89
2023/10/03 10:24:11;;;;;;;4.82;1.40;;;;;;;16.80;100.00;101348.81;5057890;28;20031;-83
2023/10/03 10:26:38;;;;;;;5.20;1.58;;;;;;;16.74;100.00;101352.88;5077575;28;20107;-84
2023/10/03 10:29:11;;;;;;;4.57;1.42;;;;;;;16.70;100.00;101358.63;5084957;28;20031;-85
2023/10/03 10:31:52;;;;;;;3.92;1.70;;;;;;;16.79;100.00;101352.47;5079302;28;20431;-84
2023/10/03 10:34:20;;;;;;;5.45;1.50;;;;;;;16.79;100.00;101355.94;5069718;28;20020;-84
2023/10/03 10:37:18;;;;;;;5.63;1.70;;;;;;;16.96;100.00;101361.53;5053464;28;20024;-89
2023/10/03 10:40:09;;;;;;;3.17;1.17;;;;;;;17.03;100.00;101362.66;5072884;28;20024;-89
2023/10/03 10:42:55;;;;;;;3.22;1.02;;;;;;;17.12;100.00;101380.41;5066240;28;20139;-85
2023/10/03 10:45:21;;;;;;;4.25;1.00;;;;;;;17.14;100.00;101386.41;5079815;28;20079;-84
2023/10/03 10:47:50;;;;;;;1.98;0.88;;;;;;;17.13;100.00;101398.03;5076245;28;20020;-90
2023/10/03 10:50:26;;;;;;;3.50;0.60;;;;;;;17.08;99.99;101402.94;5070146;28;20032;-84
2023/10/03 10:52:57;;;;;;;0.80;0.50;;;;;;;17.04;99.91;101401.56;5074857;28;20025;-92
2023/10/03 10:55:25;;;;;;;2.50;0.60;;;;;;;16.96;100.00;101404.91;5082659;28;20062;-88
2023/10/03 10:58:07;;;;;;;4.03;0.80;;;;;;;16.96;100.00;101404.91;5093413;28;20102;-84
2023/10/03 11:00:33;;;;;;;2.08;0.65;;;;;;;16.86;100.00;101404.94;5074551;28;20028;-83
2023/10/03 11:03:00;;;;;;;1.45;0.60;;;;;;;16.94;100.00;101414.03;5063838;28;20031;-87
2023/10/03 11:05:39;;;;;;;2.90;0.70;;;;;;;16.85;100.00;101410.41;5089771;28;20031;-84
2023/10/03 11:08:06;;;;;;;2.30;0.85;;;;;;;16.85;100.00;101416.53;5074805;28;20734;-83
2023/10/03 11:10:32;;;;;;;2.72;0.80;;;;;;;16.85;100.00;101424.53;5071459;28;20081;-84
2023/10/03 11:12:59;;;;;;;2.42;0.70;;;;;;;16.88;100.00;101424.25;5080077;28;20549;-83
2023/10/03 11:15:26;;;;;;;1.75;0.80;;;;;;;16.86;100.00;101428.03;5073227;28;20024;-84
2023/10/03 11:17:51;;;;;;;2.22;0.70;;;;;;;16.77;100.00;101419.03;5070023;28;20032;-83
2023/10/03 11:20:17;;;;;;;5.10;0.80;;;;;;;16.81;100.00;101409.84;5084618;28;20036;-84
2023/10/03 11:22:44;;;;;;;1.45;0.55;;;;;;;16.95;100.00;101415.69;5088843;28;20095;-84
2023/10/03 11:25:11;;;;;;;4.00;0.80;;;;;;;17.09;100.00;101428.56;5086208;28;20028;-84